sensor_id;sensor_type;location;lat;lon;timestamp;P1;durP1;ratioP1;P2;durP2;ratioP2
3189;SDS011;1606;51.946;10.558;2023-09-18T00:02:09;11.10;;;6.40;;
3189;SDS011;1606;51.946;10.558;2023-09-18T00:04:36;14.73;;;7.03;;
3189;SDS011;1606;51.946;10.558;2023-09-18T00:07:04;10.60;;;7.63;;
3189;SDS011;1606;51.946;10.558;2023-09-18T00:09:32;10.80;;;7.10;;
3189;SDS011;1606;51.946;10.558;2023-09-18T00:12:00;10.17;;;6.20;;
3189;SDS011;1606;51.946;10.558;2023-09-18T00:14:28;13.40;;;8.03;;
3189;SDS011;1606;51.946;10.558;2023-09-18T00:16:56;13.37;;;7.53;;
3189;SDS011;1606;51.946;10.558;2023-09-18T00:19:26;13.30;;;7.13;;
3189;SDS011;1606;51.946;10.558;2023-09-18T00:21:54;10.70;;;7.40;;
3189;SDS011;1606;51.946;10.558;2023-09-18T00:24:22;12.70;;;6.90;;
3189;SDS011;1606;51.946;10.558;2023-09-18T00:26:51;10.50;;;7.23;;
3189;SDS011;1606;51.946;10.558;2023-09-18T00:29:19;13.90;;;7.90;;
3189;SDS011;1606;51.946;10.558;2023-09-18T00:31:47;11.70;;;7.23;;
3189;SDS011;1606;51.946;10.558;2023-09-18T00:34:15;11.70;;;7.10;;
3189;SDS011;1606;51.946;10.558;2023-09-18T00:36:44;15.23;;;7.47;;
3189;SDS011;1606;51.946;10.558;2023-09-18T00:39:12;13.17;;;7.97;;
3189;SDS011;1606;51.946;10.558;2023-09-18T00:41:41;14.70;;;7.67;;
3189;SDS011;1606;51.946;10.558;2023-09-18T00:44:10;12.50;;;7.77;;
3189;SDS011;1606;51.946;10.558;2023-09-18T00:46:38;11.70;;;6.87;;
3189;SDS011;1606;51.946;10.558;2023-09-18T00:49:06;14.30;;;9.20;;
3189;SDS011;1606;51.946;10.558;2023-09-18T00:51:34;19.03;;;8.23;;
3189;SDS011;1606;51.946;10.558;2023-09-18T00:54:03;12.33;;;7.80;;
3189;SDS011;1606;51.946;10.558;2023-09-18T00:56:32;14.40;;;7.37;;
3189;SDS011;1606;51.946;10.558;2023-09-18T00:59:01;12.10;;;7.97;;
3189;SDS011;1606;51.946;10.558;2023-09-18T01:01:30;10.73;;;6.43;;
3189;SDS011;1606;51.946;10.558;2023-09-18T01:03:59;13.60;;;7.70;;
3189;SDS011;1606;51.946;10.558;2023-09-18T01:06:27;14.43;;;8.23;;
3189;SDS011;1606;51.946;10.558;2023-09-18T01:08:56;13.57;;;7.90;;
3189;SDS011;1606;51.946;10.558;2023-09-18T01:11:29;14.43;;;7.43;;
3189;SDS011;1606;51.946;10.558;2023-09-18T01:14:05;11.93;;;7.13;;
3189;SDS011;1606;51.946;10.558;2023-09-18T01:16:41;13.80;;;6.80;;
3189;SDS011;1606;51.946;10.558;2023-09-18T01:19:16;14.90;;;7.30;;
3189;SDS011;1606;51.946;10.558;2023-09-18T01:21:44;12.00;;;7.13;;
3189;SDS011;1606;51.946;10.558;2023-09-18T01:24:14;15.80;;;8.30;;
3189;SDS011;1606;51.946;10.558;2023-09-18T01:26:42;12.10;;;6.97;;
3189;SDS011;1606;51.946;10.558;2023-09-18T01:29:10;11.07;;;5.83;;
3189;SDS011;1606;51.946;10.558;2023-09-18T01:31:37;11.50;;;6.20;;
3189;SDS011;1606;51.946;10.558;2023-09-18T01:34:05;12.67;;;7.03;;
3189;SDS011;1606;51.946;10.558;2023-09-18T01:36:33;15.17;;;6.93;;
3189;SDS011;1606;51.946;10.558;2023-09-18T01:39:01;13.33;;;7.63;;
3189;SDS011;1606;51.946;10.558;2023-09-18T01:41:32;9.60;;;6.60;;
3189;SDS011;1606;51.946;10.558;2023-09-18T01:44:01;14.70;;;7.77;;
3189;SDS011;1606;51.946;10.558;2023-09-18T01:46:28;10.93;;;7.37;;
3189;SDS011;1606;51.946;10.558;2023-09-18T01:48:58;14.33;;;8.03;;
3189;SDS011;1606;51.946;10.558;2023-09-18T01:51:26;10.07;;;7.00;;
3189;SDS011;1606;51.946;10.558;2023-09-18T01:53:55;14.47;;;6.63;;
3189;SDS011;1606;51.946;10.558;2023-09-18T01:56:23;15.93;;;8.00;;
3189;SDS011;1606;51.946;10.558;2023-09-18T01:58:53;13.20;;;7.37;;
3189;SDS011;1606;51.946;10.558;2023-09-18T02:01:21;11.73;;;7.33;;
3189;SDS011;1606;51.946;10.558;2023-09-18T02:03:49;11.00;;;6.83;;
3189;SDS011;1606;51.946;10.558;2023-09-18T02:06:37;15.67;;;7.13;;
3189;SDS011;1606;51.946;10.558;2023-09-18T02:09:06;13.30;;;6.83;;
3189;SDS011;1606;51.946;10.558;2023-09-18T02:11:35;12.77;;;7.10;;
3189;SDS011;1606;51.946;10.558;2023-09-18T02:14:05;11.47;;;7.10;;
3189;SDS011;1606;51.946;10.558;2023-09-18T02:16:33;11.53;;;6.60;;
3189;SDS011;1606;51.946;10.558;2023-09-18T02:19:02;12.00;;;7.00;;
3189;SDS011;1606;51.946;10.558;2023-09-18T02:21:30;13.40;;;7.73;;
3189;SDS011;1606;51.946;10.558;2023-09-18T02:23:58;11.70;;;6.73;;
3189;SDS011;1606;51.946;10.558;2023-09-18T02:26:26;11.97;;;7.50;;
3189;SDS011;1606;51.946;10.558;2023-09-18T02:28:54;12.00;;;7.43;;
3189;SDS011;1606;51.946;10.558;2023-09-18T02:31:25;18.00;;;7.13;;
3189;SDS011;1606;51.946;10.558;2023-09-18T02:33:53;12.20;;;7.03;;
3189;SDS011;1606;51.946;10.558;2023-09-18T02:36:21;13.80;;;7.00;;
3189;SDS011;1606;51.946;10.558;2023-09-18T02:38:49;22.90;;;7.80;;
3189;SDS011;1606;51.946;10.558;2023-09-18T02:41:17;14.30;;;7.70;;
3189;SDS011;1606;51.946;10.558;2023-09-18T02:43:45;12.27;;;7.27;;
3189;SDS011;1606;51.946;10.558;2023-09-18T02:46:13;11.80;;;7.03;;
3189;SDS011;1606;51.946;10.558;2023-09-18T02:48:42;14.83;;;7.00;;
3189;SDS011;1606;51.946;10.558;2023-09-18T02:51:10;13.40;;;6.93;;
3189;SDS011;1606;51.946;10.558;2023-09-18T02:53:37;13.60;;;8.13;;
3189;SDS011;1606;51.946;10.558;2023-09-18T02:56:05;10.50;;;6.20;;
3189;SDS011;1606;51.946;10.558;2023-09-18T02:58:33;14.17;;;7.77;;
3189;SDS011;1606;51.946;10.558;2023-09-18T03:01:02;12.20;;;7.20;;
3189;SDS011;1606;51.946;10.558;2023-09-18T03:03:33;12.33;;;7.30;;
3189;SDS011;1606;51.946;10.558;2023-09-18T03:06:03;11.30;;;6.10;;
3189;SDS011;1606;51.946;10.558;2023-09-18T03:08:33;11.53;;;6.87;;
3189;SDS011;1606;51.946;10.558;2023-09-18T03:11:01;13.50;;;7.50;;
3189;SDS011;1606;51.946;10.558;2023-09-18T03:13:30;14.17;;;7.30;;
3189;SDS011;1606;51.946;10.558;2023-09-18T03:15:58;10.77;;;6.70;;
3189;SDS011;1606;51.946;10.558;2023-09-18T03:18:26;10.20;;;6.70;;
3189;SDS011;1606;51.946;10.558;2023-09-18T03:20:54;13.33;;;6.33;;
3189;SDS011;1606;51.946;10.558;2023-09-18T03:23:23;10.30;;;6.77;;
3189;SDS011;1606;51.946;10.558;2023-09-18T03:25:51;12.63;;;6.37;;
3189;SDS011;1606;51.946;10.558;2023-09-18T03:28:19;9.73;;;6.07;;
3189;SDS011;1606;51.946;10.558;2023-09-18T03:30:47;8.80;;;5.77;;
3189;SDS011;1606;51.946;10.558;2023-09-18T03:33:15;9.43;;;5.90;;
3189;SDS011;1606;51.946;10.558;2023-09-18T03:35:46;12.40;;;6.00;;
3189;SDS011;1606;51.946;10.558;2023-09-18T03:38:15;9.83;;;5.47;;
3189;SDS011;1606;51.946;10.558;2023-09-18T03:40:45;13.13;;;6.70;;
3189;SDS011;1606;51.946;10.558;2023-09-18T03:43:13;14.80;;;6.67;;
3189;SDS011;1606;51.946;10.558;2023-09-18T03:45:41;13.43;;;6.80;;
3189;SDS011;1606;51.946;10.558;2023-09-18T03:48:09;9.83;;;5.90;;
3189;SDS011;1606;51.946;10.558;2023-09-18T03:50:38;9.80;;;6.20;;
3189;SDS011;1606;51.946;10.558;2023-09-18T03:53:07;11.43;;;6.83;;
3189;SDS011;1606;51.946;10.558;2023-09-18T03:55:35;10.43;;;5.97;;
3189;SDS011;1606;51.946;10.558;2023-09-18T03:58:05;11.33;;;6.10;;
3189;SDS011;1606;51.946;10.558;2023-09-18T04:00:33;10.77;;;6.10;;
3189;SDS011;1606;51.946;10.558;2023-09-18T04:03:02;9.90;;;6.20;;
3189;SDS011;1606;51.946;10.558;2023-09-18T04:05:30;11.70;;;6.50;;
3189;SDS011;1606;51.946;10.558;2023-09-18T04:07:58;11.40;;;6.17;;
3189;SDS011;1606;51.946;10.558;2023-09-18T04:10:26;18.83;;;7.63;;
3189;SDS011;1606;51.946;10.558;2023-09-18T04:12:54;9.77;;;6.27;;
3189;SDS011;1606;51.946;10.558;2023-09-18T04:15:24;11.70;;;6.97;;
3189;SDS011;1606;51.946;10.558;2023-09-18T04:17:52;14.10;;;6.80;;
3189;SDS011;1606;51.946;10.558;2023-09-18T04:20:19;15.00;;;6.90;;
3189;SDS011;1606;51.946;10.558;2023-09-18T04:22:59;11.20;;;7.17;;
3189;SDS011;1606;51.946;10.558;2023-09-18T04:25:48;10.57;;;6.07;;
3189;SDS011;1606;51.946;10.558;2023-09-18T04:28:17;10.70;;;6.50;;
3189;SDS011;1606;51.946;10.558;2023-09-18T04:30:47;10.13;;;6.57;;
3189;SDS011;1606;51.946;10.558;2023-09-18T04:33:15;12.77;;;5.77;;
3189;SDS011;1606;51.946;10.558;2023-09-18T04:35:45;10.33;;;6.33;;
3189;SDS011;1606;51.946;10.558;2023-09-18T04:38:13;10.17;;;5.47;;
3189;SDS011;1606;51.946;10.558;2023-09-18T04:40:42;10.20;;;5.87;;
3189;SDS011;1606;51.946;10.558;2023-09-18T04:43:09;9.87;;;6.33;;
3189;SDS011;1606;51.946;10.558;2023-09-18T04:45:37;10.23;;;6.27;;
3189;SDS011;1606;51.946;10.558;2023-09-18T04:48:07;13.03;;;5.20;;
3189;SDS011;1606;51.946;10.558;2023-09-18T04:50:35;10.10;;;6.83;;
3189;SDS011;1606;51.946;10.558;2023-09-18T04:53:03;11.10;;;6.60;;
3189;SDS011;1606;51.946;10.558;2023-09-18T04:55:31;16.57;;;7.23;;
3189;SDS011;1606;51.946;10.558;2023-09-18T04:57:59;12.30;;;7.37;;
3189;SDS011;1606;51.946;10.558;2023-09-18T05:00:26;12.40;;;7.13;;
3189;SDS011;1606;51.946;10.558;2023-09-18T05:02:55;10.60;;;6.30;;
3189;SDS011;1606;51.946;10.558;2023-09-18T05:05:25;10.80;;;6.73;;
3189;SDS011;1606;51.946;10.558;2023-09-18T05:07:53;12.47;;;7.90;;
3189;SDS011;1606;51.946;10.558;2023-09-18T05:10:21;10.10;;;6.77;;
3189;SDS011;1606;51.946;10.558;2023-09-18T05:12:49;10.37;;;6.40;;
3189;SDS011;1606;51.946;10.558;2023-09-18T05:15:24;11.85;;;7.00;;
3189;SDS011;1606;51.946;10.558;2023-09-18T05:17:56;13.43;;;7.67;;
3189;SDS011;1606;51.946;10.558;2023-09-18T05:20:27;11.07;;;7.30;;
3189;SDS011;1606;51.946;10.558;2023-09-18T05:22:58;12.73;;;7.13;;
3189;SDS011;1606;51.946;10.558;2023-09-18T05:25:26;13.80;;;8.10;;
3189;SDS011;1606;51.946;10.558;2023-09-18T05:27:58;11.47;;;8.20;;
3189;SDS011;1606;51.946;10.558;2023-09-18T05:30:28;12.07;;;8.17;;
3189;SDS011;1606;51.946;10.558;2023-09-18T05:33:00;13.30;;;8.40;;
3189;SDS011;1606;51.946;10.558;2023-09-18T05:35:32;11.27;;;7.57;;
3189;SDS011;1606;51.946;10.558;2023-09-18T05:38:03;12.57;;;7.23;;
3189;SDS011;1606;51.946;10.558;2023-09-18T05:40:31;13.80;;;8.40;;
3189;SDS011;1606;51.946;10.558;2023-09-18T05:42:59;17.73;;;9.20;;
3189;SDS011;1606;51.946;10.558;2023-09-18T05:45:27;13.77;;;8.27;;
3189;SDS011;1606;51.946;10.558;2023-09-18T05:47:56;13.27;;;8.20;;
3189;SDS011;1606;51.946;10.558;2023-09-18T05:50:31;11.77;;;8.07;;
3189;SDS011;1606;51.946;10.558;2023-09-18T05:53:02;12.40;;;8.50;;
3189;SDS011;1606;51.946;10.558;2023-09-18T05:55:31;18.37;;;9.20;;
3189;SDS011;1606;51.946;10.558;2023-09-18T05:58:00;13.93;;;7.50;;
3189;SDS011;1606;51.946;10.558;2023-09-18T06:00:30;11.40;;;6.93;;
3189;SDS011;1606;51.946;10.558;2023-09-18T06:02:59;10.67;;;6.10;;
3189;SDS011;1606;51.946;10.558;2023-09-18T06:05:27;12.63;;;6.80;;
3189;SDS011;1606;51.946;10.558;2023-09-18T06:07:59;11.77;;;6.07;;
3189;SDS011;1606;51.946;10.558;2023-09-18T06:10:27;8.80;;;5.00;;
3189;SDS011;1606;51.946;10.558;2023-09-18T06:12:57;8.90;;;4.50;;
3189;SDS011;1606;51.946;10.558;2023-09-18T06:15:30;10.33;;;5.67;;
3189;SDS011;1606;51.946;10.558;2023-09-18T06:17:58;8.80;;;5.57;;
3189;SDS011;1606;51.946;10.558;2023-09-18T06:20:26;11.70;;;6.00;;
3189;SDS011;1606;51.946;10.558;2023-09-18T06:22:54;13.87;;;5.50;;
3189;SDS011;1606;51.946;10.558;2023-09-18T06:25:23;8.57;;;5.33;;
3189;SDS011;1606;51.946;10.558;2023-09-18T06:27:51;9.33;;;5.70;;
3189;SDS011;1606;51.946;10.558;2023-09-18T06:30:19;9.13;;;4.77;;
3189;SDS011;1606;51.946;10.558;2023-09-18T06:32:47;8.23;;;4.90;;
3189;SDS011;1606;51.946;10.558;2023-09-18T06:35:16;8.60;;;5.10;;
3189;SDS011;1606;51.946;10.558;2023-09-18T06:37:44;11.10;;;4.63;;
3189;SDS011;1606;51.946;10.558;2023-09-18T06:40:12;9.73;;;4.43;;
3189;SDS011;1606;51.946;10.558;2023-09-18T06:42:41;10.80;;;4.70;;
3189;SDS011;1606;51.946;10.558;2023-09-18T06:45:09;11.10;;;4.90;;
3189;SDS011;1606;51.946;10.558;2023-09-18T06:47:37;8.70;;;5.10;;
3189;SDS011;1606;51.946;10.558;2023-09-18T06:50:07;11.13;;;4.80;;
3189;SDS011;1606;51.946;10.558;2023-09-18T06:52:38;8.20;;;4.70;;
3189;SDS011;1606;51.946;10.558;2023-09-18T06:55:07;8.53;;;4.70;;
3189;SDS011;1606;51.946;10.558;2023-09-18T06:57:35;9.67;;;5.07;;
3189;SDS011;1606;51.946;10.558;2023-09-18T07:00:05;8.83;;;5.13;;
3189;SDS011;1606;51.946;10.558;2023-09-18T07:02:34;9.23;;;5.10;;
3189;SDS011;1606;51.946;10.558;2023-09-18T07:05:03;12.37;;;4.87;;
3189;SDS011;1606;51.946;10.558;2023-09-18T07:07:31;11.20;;;4.97;;
3189;SDS011;1606;51.946;10.558;2023-09-18T07:09:59;9.83;;;4.77;;
3189;SDS011;1606;51.946;10.558;2023-09-18T07:12:31;13.10;;;5.30;;
3189;SDS011;1606;51.946;10.558;2023-09-18T07:15:00;9.30;;;4.87;;
3189;SDS011;1606;51.946;10.558;2023-09-18T07:17:32;8.57;;;5.00;;
3189;SDS011;1606;51.946;10.558;2023-09-18T07:20:01;11.83;;;4.90;;
3189;SDS011;1606;51.946;10.558;2023-09-18T07:22:36;7.80;;;4.03;;
3189;SDS011;1606;51.946;10.558;2023-09-18T07:25:04;9.00;;;5.20;;
3189;SDS011;1606;51.946;10.558;2023-09-18T07:27:33;9.60;;;4.80;;
3189;SDS011;1606;51.946;10.558;2023-09-18T07:30:03;8.60;;;4.90;;
3189;SDS011;1606;51.946;10.558;2023-09-18T07:32:33;10.17;;;5.40;;
3189;SDS011;1606;51.946;10.558;2023-09-18T07:35:04;10.90;;;5.20;;
3189;SDS011;1606;51.946;10.558;2023-09-18T07:37:34;10.07;;;5.27;;
3189;SDS011;1606;51.946;10.558;2023-09-18T07:40:02;10.63;;;5.40;;
3189;SDS011;1606;51.946;10.558;2023-09-18T07:42:31;9.53;;;5.37;;
3189;SDS011;1606;51.946;10.558;2023-09-18T07:44:59;13.10;;;5.37;;
3189;SDS011;1606;51.946;10.558;2023-09-18T07:47:27;9.33;;;5.13;;
3189;SDS011;1606;51.946;10.558;2023-09-18T07:49:56;15.13;;;4.97;;
3189;SDS011;1606;51.946;10.558;2023-09-18T07:52:24;14.33;;;5.00;;
3189;SDS011;1606;51.946;10.558;2023-09-18T07:54:52;18.33;;;4.90;;
3189;SDS011;1606;51.946;10.558;2023-09-18T07:57:20;13.40;;;5.30;;
3189;SDS011;1606;51.946;10.558;2023-09-18T07:59:49;12.27;;;5.00;;
3189;SDS011;1606;51.946;10.558;2023-09-18T08:02:17;13.03;;;4.90;;
3189;SDS011;1606;51.946;10.558;2023-09-18T08:04:45;10.73;;;5.47;;
3189;SDS011;1606;51.946;10.558;2023-09-18T08:07:15;15.70;;;4.33;;
3189;SDS011;1606;51.946;10.558;2023-09-18T08:09:43;11.33;;;4.17;;
3189;SDS011;1606;51.946;10.558;2023-09-18T08:12:13;15.00;;;4.50;;
3189;SDS011;1606;51.946;10.558;2023-09-18T08:14:41;14.60;;;5.00;;
3189;SDS011;1606;51.946;10.558;2023-09-18T08:17:10;14.10;;;5.00;;
3189;SDS011;1606;51.946;10.558;2023-09-18T08:19:38;14.43;;;4.50;;
3189;SDS011;1606;51.946;10.558;2023-09-18T08:22:07;12.23;;;4.43;;
3189;SDS011;1606;51.946;10.558;2023-09-18T08:24:40;16.07;;;4.20;;
3189;SDS011;1606;51.946;10.558;2023-09-18T08:27:09;14.80;;;4.10;;
3189;SDS011;1606;51.946;10.558;2023-09-18T08:29:38;15.83;;;4.10;;
3189;SDS011;1606;51.946;10.558;2023-09-18T08:32:06;13.80;;;4.13;;
3189;SDS011;1606;51.946;10.558;2023-09-18T08:34:33;10.03;;;3.70;;
3189;SDS011;1606;51.946;10.558;2023-09-18T08:37:02;12.70;;;4.50;;
3189;SDS011;1606;51.946;10.558;2023-09-18T08:39:30;14.17;;;3.80;;
3189;SDS011;1606;51.946;10.558;2023-09-18T08:42:03;22.70;;;4.50;;
3189;SDS011;1606;51.946;10.558;2023-09-18T08:44:31;11.13;;;4.13;;
3189;SDS011;1606;51.946;10.558;2023-09-18T08:46:59;11.07;;;4.17;;
3189;SDS011;1606;51.946;10.558;2023-09-18T08:49:28;10.73;;;3.33;;
3189;SDS011;1606;51.946;10.558;2023-09-18T08:51:57;11.37;;;3.93;;
3189;SDS011;1606;51.946;10.558;2023-09-18T08:54:27;12.33;;;3.70;;
3189;SDS011;1606;51.946;10.558;2023-09-18T08:56:55;11.83;;;4.13;;
3189;SDS011;1606;51.946;10.558;2023-09-18T08:59:25;11.87;;;3.43;;
3189;SDS011;1606;51.946;10.558;2023-09-18T09:01:55;11.63;;;4.00;;
3189;SDS011;1606;51.946;10.558;2023-09-18T09:04:23;11.33;;;4.47;;
3189;SDS011;1606;51.946;10.558;2023-09-18T09:06:51;15.67;;;4.07;;
3189;SDS011;1606;51.946;10.558;2023-09-18T09:09:19;11.93;;;3.70;;
3189;SDS011;1606;51.946;10.558;2023-09-18T09:11:50;10.03;;;3.90;;
3189;SDS011;1606;51.946;10.558;2023-09-18T09:14:18;9.60;;;3.70;;
3189;SDS011;1606;51.946;10.558;2023-09-18T09:16:50;13.60;;;4.30;;
3189;SDS011;1606;51.946;10.558;2023-09-18T09:19:27;8.60;;;3.37;;
3189;SDS011;1606;51.946;10.558;2023-09-18T09:21:56;20.07;;;5.10;;
3189;SDS011;1606;51.946;10.558;2023-09-18T09:27:08;16.07;;;3.80;;
3189;SDS011;1606;51.946;10.558;2023-09-18T09:29:37;9.93;;;2.77;;
3189;SDS011;1606;51.946;10.558;2023-09-18T09:32:16;7.60;;;2.80;;
3189;SDS011;1606;51.946;10.558;2023-09-18T09:34:46;9.13;;;3.50;;
3189;SDS011;1606;51.946;10.558;2023-09-18T09:37:14;9.43;;;3.00;;
3189;SDS011;1606;51.946;10.558;2023-09-18T09:39:46;7.87;;;2.93;;
3189;SDS011;1606;51.946;10.558;2023-09-18T09:42:16;11.23;;;2.97;;
3189;SDS011;1606;51.946;10.558;2023-09-18T09:44:55;11.27;;;3.53;;
3189;SDS011;1606;51.946;10.558;2023-09-18T09:47:33;11.57;;;2.77;;
3189;SDS011;1606;51.946;10.558;2023-09-18T09:50:08;12.90;;;3.40;;
3189;SDS011;1606;51.946;10.558;2023-09-18T09:52:40;11.10;;;3.10;;
3189;SDS011;1606;51.946;10.558;2023-09-18T09:55:20;16.10;;;4.47;;
3189;SDS011;1606;51.946;10.558;2023-09-18T09:57:50;11.38;;;3.53;;
3189;SDS011;1606;51.946;10.558;2023-09-18T10:00:19;10.67;;;3.73;;
3189;SDS011;1606;51.946;10.558;2023-09-18T10:02:57;12.13;;;4.00;;
3189;SDS011;1606;51.946;10.558;2023-09-18T10:05:27;12.40;;;4.60;;
3189;SDS011;1606;51.946;10.558;2023-09-18T10:07:58;10.50;;;3.10;;
3189;SDS011;1606;51.946;10.558;2023-09-18T10:10:32;12.40;;;4.97;;
3189;SDS011;1606;51.946;10.558;2023-09-18T10:13:07;11.30;;;3.97;;
3189;SDS011;1606;51.946;10.558;2023-09-18T10:15:38;13.90;;;4.57;;
3189;SDS011;1606;51.946;10.558;2023-09-18T10:18:27;16.90;;;4.40;;
3189;SDS011;1606;51.946;10.558;2023-09-18T10:21:00;11.30;;;3.70;;
3189;SDS011;1606;51.946;10.558;2023-09-18T10:23:38;12.03;;;3.47;;
3189;SDS011;1606;51.946;10.558;2023-09-18T10:26:21;16.77;;;4.77;;
3189;SDS011;1606;51.946;10.558;2023-09-18T10:28:52;11.33;;;3.37;;
3189;SDS011;1606;51.946;10.558;2023-09-18T10:31:25;14.93;;;4.03;;
3189;SDS011;1606;51.946;10.558;2023-09-18T10:33:56;11.90;;;3.77;;
3189;SDS011;1606;51.946;10.558;2023-09-18T10:36:25;10.33;;;3.53;;
3189;SDS011;1606;51.946;10.558;2023-09-18T10:39:00;10.80;;;3.97;;
3189;SDS011;1606;51.946;10.558;2023-09-18T10:41:29;12.97;;;3.57;;
3189;SDS011;1606;51.946;10.558;2023-09-18T10:43:57;9.77;;;3.50;;
3189;SDS011;1606;51.946;10.558;2023-09-18T10:46:27;9.33;;;2.87;;
3189;SDS011;1606;51.946;10.558;2023-09-18T10:48:56;9.03;;;3.10;;
3189;SDS011;1606;51.946;10.558;2023-09-18T10:51:25;8.80;;;3.70;;
3189;SDS011;1606;51.946;10.558;2023-09-18T10:53:56;10.37;;;3.10;;
3189;SDS011;1606;51.946;10.558;2023-09-18T10:56:24;9.67;;;3.60;;
3189;SDS011;1606;51.946;10.558;2023-09-18T10:58:55;12.43;;;3.73;;
3189;SDS011;1606;51.946;10.558;2023-09-18T11:01:25;11.87;;;3.90;;
3189;SDS011;1606;51.946;10.558;2023-09-18T11:03:59;11.50;;;3.10;;
3189;SDS011;1606;51.946;10.558;2023-09-18T11:06:29;13.97;;;4.00;;
3189;SDS011;1606;51.946;10.558;2023-09-18T11:09:00;10.17;;;3.30;;
3189;SDS011;1606;51.946;10.558;2023-09-18T11:11:30;10.50;;;3.23;;
3189;SDS011;1606;51.946;10.558;2023-09-18T11:14:02;10.30;;;2.93;;
3189;SDS011;1606;51.946;10.558;2023-09-18T11:16:34;7.73;;;2.80;;
3189;SDS011;1606;51.946;10.558;2023-09-18T11:19:09;16.93;;;2.90;;
3189;SDS011;1606;51.946;10.558;2023-09-18T11:21:39;14.10;;;3.27;;
3189;SDS011;1606;51.946;10.558;2023-09-18T11:24:14;14.30;;;2.90;;
3189;SDS011;1606;51.946;10.558;2023-09-18T11:26:44;15.30;;;2.77;;
3189;SDS011;1606;51.946;10.558;2023-09-18T11:29:14;18.13;;;2.93;;
3189;SDS011;1606;51.946;10.558;2023-09-18T11:31:45;10.80;;;2.67;;
3189;SDS011;1606;51.946;10.558;2023-09-18T11:34:20;11.87;;;3.70;;
3189;SDS011;1606;51.946;10.558;2023-09-18T11:36:49;17.30;;;3.30;;
3189;SDS011;1606;51.946;10.558;2023-09-18T11:39:33;9.60;;;2.80;;
3189;SDS011;1606;51.946;10.558;2023-09-18T11:42:06;16.90;;;3.10;;
3189;SDS011;1606;51.946;10.558;2023-09-18T11:44:36;10.53;;;3.20;;
3189;SDS011;1606;51.946;10.558;2023-09-18T11:47:09;10.13;;;2.70;;
3189;SDS011;1606;51.946;10.558;2023-09-18T11:49:50;9.47;;;2.63;;
3189;SDS011;1606;51.946;10.558;2023-09-18T11:52:21;16.60;;;2.97;;
3189;SDS011;1606;51.946;10.558;2023-09-18T11:54:50;9.20;;;2.77;;
3189;SDS011;1606;51.946;10.558;2023-09-18T11:57:19;10.60;;;2.80;;
3189;SDS011;1606;51.946;10.558;2023-09-18T11:59:47;11.97;;;2.70;;
3189;SDS011;1606;51.946;10.558;2023-09-18T12:02:24;11.87;;;2.80;;
3189;SDS011;1606;51.946;10.558;2023-09-18T12:04:56;8.60;;;2.77;;
3189;SDS011;1606;51.946;10.558;2023-09-18T12:07:24;9.00;;;3.00;;
3189;SDS011;1606;51.946;10.558;2023-09-18T12:09:52;9.17;;;2.53;;
3189;SDS011;1606;51.946;10.558;2023-09-18T12:12:21;13.43;;;2.70;;
3189;SDS011;1606;51.946;10.558;2023-09-18T12:14:49;8.83;;;2.40;;
3189;SDS011;1606;51.946;10.558;2023-09-18T12:17:19;11.07;;;3.60;;
3189;SDS011;1606;51.946;10.558;2023-09-18T12:19:51;11.00;;;2.80;;
3189;SDS011;1606;51.946;10.558;2023-09-18T12:22:24;8.53;;;2.40;;
3189;SDS011;1606;51.946;10.558;2023-09-18T12:24:53;13.30;;;3.03;;
3189;SDS011;1606;51.946;10.558;2023-09-18T12:27:39;10.03;;;3.47;;
3189;SDS011;1606;51.946;10.558;2023-09-18T12:30:08;9.40;;;2.50;;
3189;SDS011;1606;51.946;10.558;2023-09-18T12:32:38;12.70;;;2.90;;
3189;SDS011;1606;51.946;10.558;2023-09-18T12:35:07;10.57;;;3.30;;
3189;SDS011;1606;51.946;10.558;2023-09-18T12:37:40;10.37;;;2.90;;
3189;SDS011;1606;51.946;10.558;2023-09-18T12:40:19;8.60;;;2.80;;
3189;SDS011;1606;51.946;10.558;2023-09-18T12:42:49;9.33;;;2.70;;
3189;SDS011;1606;51.946;10.558;2023-09-18T12:45:18;10.47;;;2.57;;
3189;SDS011;1606;51.946;10.558;2023-09-18T12:47:46;11.70;;;3.10;;
3189;SDS011;1606;51.946;10.558;2023-09-18T12:50:14;7.90;;;2.47;;
3189;SDS011;1606;51.946;10.558;2023-09-18T12:52:44;7.63;;;2.67;;
3189;SDS011;1606;51.946;10.558;2023-09-18T12:55:21;12.33;;;3.10;;
3189;SDS011;1606;51.946;10.558;2023-09-18T12:57:51;11.90;;;3.10;;
3189;SDS011;1606;51.946;10.558;2023-09-18T13:00:19;9.33;;;2.60;;
3189;SDS011;1606;51.946;10.558;2023-09-18T13:02:49;11.50;;;2.67;;
3189;SDS011;1606;51.946;10.558;2023-09-18T13:05:22;8.77;;;3.00;;
3189;SDS011;1606;51.946;10.558;2023-09-18T13:07:54;9.50;;;2.63;;
3189;SDS011;1606;51.946;10.558;2023-09-18T13:10:22;12.17;;;3.40;;
3189;SDS011;1606;51.946;10.558;2023-09-18T13:12:54;10.13;;;2.90;;
3189;SDS011;1606;51.946;10.558;2023-09-18T13:15:24;8.30;;;2.20;;
3189;SDS011;1606;51.946;10.558;2023-09-18T13:17:53;9.30;;;3.17;;
3189;SDS011;1606;51.946;10.558;2023-09-18T13:20:22;10.17;;;2.80;;
3189;SDS011;1606;51.946;10.558;2023-09-18T13:22:54;10.80;;;3.27;;
3189;SDS011;1606;51.946;10.558;2023-09-18T13:25:25;11.13;;;2.97;;
3189;SDS011;1606;51.946;10.558;2023-09-18T13:27:55;8.00;;;2.50;;
3189;SDS011;1606;51.946;10.558;2023-09-18T13:30:22;7.40;;;2.50;;
3189;SDS011;1606;51.946;10.558;2023-09-18T13:33:00;8.23;;;2.70;;
3189;SDS011;1606;51.946;10.558;2023-09-18T13:35:29;9.40;;;3.00;;
3189;SDS011;1606;51.946;10.558;2023-09-18T13:37:58;8.40;;;2.23;;
3189;SDS011;1606;51.946;10.558;2023-09-18T13:40:26;8.03;;;2.40;;
3189;SDS011;1606;51.946;10.558;2023-09-18T13:42:56;11.00;;;2.80;;
3189;SDS011;1606;51.946;10.558;2023-09-18T13:45:24;11.50;;;3.20;;
3189;SDS011;1606;51.946;10.558;2023-09-18T13:47:52;10.63;;;2.47;;
3189;SDS011;1606;51.946;10.558;2023-09-18T13:50:20;10.37;;;2.60;;
3189;SDS011;1606;51.946;10.558;2023-09-18T13:52:49;11.83;;;2.70;;
3189;SDS011;1606;51.946;10.558;2023-09-18T13:55:18;8.90;;;2.37;;
3189;SDS011;1606;51.946;10.558;2023-09-18T13:57:46;8.33;;;2.63;;
3189;SDS011;1606;51.946;10.558;2023-09-18T14:00:15;11.40;;;2.20;;
3189;SDS011;1606;51.946;10.558;2023-09-18T14:02:44;7.90;;;2.10;;
3189;SDS011;1606;51.946;10.558;2023-09-18T14:05:12;8.07;;;2.23;;
3189;SDS011;1606;51.946;10.558;2023-09-18T14:07:43;8.40;;;2.10;;
3189;SDS011;1606;51.946;10.558;2023-09-18T14:10:11;6.83;;;2.00;;
3189;SDS011;1606;51.946;10.558;2023-09-18T14:12:40;11.53;;;2.80;;
3189;SDS011;1606;51.946;10.558;2023-09-18T14:15:09;8.03;;;2.77;;
3189;SDS011;1606;51.946;10.558;2023-09-18T14:17:38;9.03;;;2.50;;
3189;SDS011;1606;51.946;10.558;2023-09-18T14:20:07;7.80;;;3.13;;
3189;SDS011;1606;51.946;10.558;2023-09-18T14:22:36;9.30;;;2.30;;
3189;SDS011;1606;51.946;10.558;2023-09-18T14:25:07;8.27;;;2.77;;
3189;SDS011;1606;51.946;10.558;2023-09-18T14:27:35;8.60;;;2.70;;
3189;SDS011;1606;51.946;10.558;2023-09-18T14:30:05;9.50;;;2.43;;
3189;SDS011;1606;51.946;10.558;2023-09-18T14:32:37;10.73;;;2.73;;
3189;SDS011;1606;51.946;10.558;2023-09-18T14:35:06;9.03;;;2.47;;
3189;SDS011;1606;51.946;10.558;2023-09-18T14:37:35;8.10;;;2.60;;
3189;SDS011;1606;51.946;10.558;2023-09-18T14:40:04;8.20;;;2.20;;
3189;SDS011;1606;51.946;10.558;2023-09-18T14:42:35;9.50;;;2.87;;
3189;SDS011;1606;51.946;10.558;2023-09-18T14:45:05;11.40;;;3.20;;
3189;SDS011;1606;51.946;10.558;2023-09-18T14:47:33;8.00;;;2.43;;
3189;SDS011;1606;51.946;10.558;2023-09-18T14:50:01;8.37;;;2.73;;
3189;SDS011;1606;51.946;10.558;2023-09-18T14:52:31;9.73;;;3.10;;
3189;SDS011;1606;51.946;10.558;2023-09-18T14:55:00;9.90;;;2.80;;
3189;SDS011;1606;51.946;10.558;2023-09-18T14:57:28;11.17;;;3.00;;
3189;SDS011;1606;51.946;10.558;2023-09-18T14:59:56;10.50;;;2.73;;
3189;SDS011;1606;51.946;10.558;2023-09-18T15:02:25;7.53;;;2.90;;
3189;SDS011;1606;51.946;10.558;2023-09-18T15:04:56;8.70;;;2.30;;
3189;SDS011;1606;51.946;10.558;2023-09-18T15:07:25;15.70;;;3.40;;
3189;SDS011;1606;51.946;10.558;2023-09-18T15:09:53;8.47;;;2.70;;